2022年6月24日 5:00 下午2022年6月25日 2:00 上午有效
时间
星期五
5:00 下午
30%
星期五
6:00 下午
30%
星期五
7:00 下午
30%
星期五
8:00 下午
星期五
9:00 下午
星期五
10:00 下午
星期五
11:00 下午
星期六
12:00 上午
星期六
1:00 上午
代码
LIFR
LIFR
LIFR
VFR
VFR
VFR
VFR
VFR
VFR
天气
碎云
碎云
碎云
碎云
碎云
碎云
碎云
碎云
碎云
能见度
6¼ mi+
6¼ mi+
6¼ mi+
6¼ mi+
6¼ mi+
6¼ mi+
6¼ mi+
6¼ mi+
6¼ mi+
天花板
3.500 ft
3.500 ft
3.500 ft
3.500 ft
3.500 ft
3.500 ft
3.500 ft
3.500 ft
3.500 ft
230°
230°
230°
230°
230°
230°
230°
230°
230°
230°
230°
230°
230°
230°
230°
230°
230°
230°
速度
6 kt
6 kt
6 kt
6 kt
6 kt
6 kt
6 kt
6 kt
6 kt
阵风
温度/星期日
9:40 下午

原版的

TAF LFLW 241400Z 2415/2424 23006KT 9999 BKN035
PROB30 TEMPO 2415/2418 SHRA SCT030TCU

TAF Aurillac Airport

Aurillac Airport是Aurillac,法国中的中型机场。 该机场有一条跑道: 15/33.

这份报告是针对2022年6月24日 4:00 下午, 当地时间在Aurillac Airport进行的。 从2022年6月24日 5:00 下午到2022年6月25日 2:00 上午, 当地时间有效.

预报

  • 从星期五 5:00 下午到星期六 2:00 上午

    • 风: 风来自230°方向,速度为6 kt。
    • 能见度: 6¼ mi 或者更多
    • 乌云: 碎云在3.500 ft的高度.

  • 暂时在星期五 5:00 下午和8:00 下午之间 ({一个机会)

    • 乌云: 疏云,零星散落的云朵 高耸的积云在3.000 ft的高度.

白天

今天,太阳从6:05 上午升起,在9:40 下午降落。 这适用于Aurillac Airport,世界夏令时可能有所不同。 当地时间与世界标准时间之间的时差为+2 小时。 夏令时目前正在进行中。

下载我们的应用程序

在您的手机和平板电脑上轻松访问所有航空天气。
有许多网站上没有的功能,如离线支持和个人机场列表。

Studio Eveline

Benalmádena
España

我们和第三方通过cookies跟踪您在我们网站上的上网行为。如果您继续,我们认为您同意我们的cookie政策。 了解更多